createdAt,value
2022-08-17T00:02:36.918Z,20.4
2022-08-17T00:04:37.634Z,17.2
2022-08-17T00:06:39.443Z,21.5
2022-08-17T00:08:41.268Z,24
2022-08-17T00:10:46.309Z,16.8
2022-08-17T00:12:48.152Z,15.1
2022-08-17T00:14:49.987Z,17.9
2022-08-17T00:16:56.602Z,14.8
2022-08-17T00:19:06.472Z,16.9
2022-08-17T00:22:57.218Z,16.2
2022-08-17T00:25:02.432Z,22.4
2022-08-17T00:31:34.671Z,18.6
2022-08-17T00:33:36.485Z,19.5
2022-08-17T00:35:38.315Z,27.9
2022-08-17T00:37:43.392Z,16.6
2022-08-17T00:39:45.274Z,21.6
2022-08-17T00:41:47.030Z,18.8
2022-08-17T00:43:48.852Z,17.2
2022-08-17T00:45:50.673Z,16.2
2022-08-17T00:47:52.491Z,17.3
2022-08-17T00:51:59.404Z,17.9
2022-08-17T01:02:08.486Z,17.3
2022-08-17T01:04:10.321Z,32
2022-08-17T01:06:15.389Z,25.7
2022-08-17T01:08:17.204Z,15.5
2022-08-17T01:10:59.083Z,16.7
2022-08-17T01:12:20.846Z,17.7
2022-08-17T01:14:22.811Z,15.3
2022-08-17T01:16:24.504Z,17.6
2022-08-17T01:18:26.322Z,16.6
2022-08-17T01:20:31.412Z,18.1
2022-08-17T01:22:33.413Z,22
2022-08-17T01:24:35.028Z,17.9
2022-08-17T01:25:37.569Z,23.3
2022-08-17T01:27:39.587Z,18.4
2022-08-17T01:29:41.236Z,32.9
2022-08-17T01:31:43.057Z,35.1
2022-08-17T01:33:48.137Z,20.6
2022-08-17T01:35:49.971Z,22
2022-08-17T01:37:51.789Z,19.7
2022-08-17T01:39:53.687Z,21.7
2022-08-17T01:41:55.421Z,24.9
2022-08-17T01:43:57.244Z,19.6
2022-08-17T01:46:02.821Z,19.4
2022-08-17T01:48:04.164Z,21.4
2022-08-17T01:50:05.989Z,19.6
2022-08-17T01:52:07.785Z,28.8
2022-08-17T01:54:09.615Z,25.5
2022-08-17T01:56:11.454Z,25.9
2022-08-17T01:58:13.261Z,22.2
2022-08-17T02:00:15.074Z,27.1
2022-08-17T02:02:31.010Z,20.7
2022-08-17T02:04:22.002Z,25.2
2022-08-17T02:06:27.476Z,25.1
2022-08-17T02:08:36.916Z,21.1
2022-08-17T02:10:34.051Z,31.3
2022-08-17T02:12:38.381Z,22.2
2022-08-17T02:14:31.100Z,20.6
2022-08-17T02:16:37.459Z,26.7
2022-08-17T02:18:38.027Z,32.8
2022-08-17T02:20:42.206Z,27.5
2022-08-17T02:25:46.049Z,20.9
2022-08-17T02:27:47.876Z,22.2
2022-08-17T02:29:52.981Z,23.4
2022-08-17T02:35:58.447Z,26
2022-08-17T02:38:00.283Z,35.1
2022-08-17T02:40:02.201Z,28.4
2022-08-17T02:42:03.955Z,25.2
2022-08-17T02:44:09.042Z,21.9
2022-08-17T02:46:10.877Z,28.6
2022-08-17T02:48:12.700Z,22.5
2022-08-17T02:50:14.524Z,19.7
2022-08-17T02:52:16.335Z,27.5
2022-08-17T02:54:41.632Z,22.6
2022-08-17T02:56:19.978Z,24.4
2022-08-17T02:58:34.714Z,26.7
2022-08-17T03:00:26.921Z,20.8
2022-08-17T03:02:28.726Z,21.1
2022-08-17T03:06:32.369Z,19.3
2022-08-17T03:08:34.202Z,22.7
2022-08-17T03:12:41.110Z,22.3
2022-08-17T03:14:42.951Z,25
2022-08-17T03:17:48.872Z,20.5
2022-08-17T03:19:50.661Z,19.5
2022-08-17T03:21:55.381Z,20.8
2022-08-17T03:23:54.702Z,26.1
2022-08-17T03:25:59.440Z,22.8
2022-08-17T03:28:01.251Z,26.9
2022-08-17T03:30:03.133Z,20.3
2022-08-17T03:32:04.890Z,21.4
2022-08-17T03:36:08.541Z,22.2
2022-08-17T03:38:10.352Z,20.7
2022-08-17T03:40:15.515Z,24.4
2022-08-17T03:42:31.311Z,22.2
2022-08-17T03:44:19.082Z,27.1
2022-08-17T03:46:34.422Z,20.7
2022-08-17T03:48:22.745Z,23.9
2022-08-17T03:50:24.575Z,28.3
2022-08-17T03:52:26.383Z,29.9
2022-08-17T03:54:31.494Z,20.7
2022-08-17T03:56:33.310Z,23.2
2022-08-17T03:58:35.155Z,22.1
2022-08-17T04:02:38.795Z,23.5
2022-08-17T04:04:40.647Z,20.1
2022-08-17T04:06:42.466Z,22.3
2022-08-17T04:08:47.534Z,21.1
2022-08-17T04:10:49.359Z,34.9
2022-08-17T04:19:23.541Z,24
2022-08-17T04:25:32.289Z,22.7
2022-08-17T04:27:34.126Z,28.7
2022-08-17T04:29:54.920Z,31.6
2022-08-17T04:31:37.773Z,24.7
2022-08-17T04:33:39.639Z,24.6
2022-08-17T04:37:46.503Z,27.5
2022-08-17T04:39:48.387Z,22.5
2022-08-17T04:43:51.989Z,24.3
2022-08-17T04:45:56.571Z,22.1
2022-08-17T04:47:55.614Z,21.1
2022-08-17T04:50:00.705Z,28.5
2022-08-17T04:52:04.670Z,26.8
2022-08-17T04:54:04.387Z,22.4
2022-08-17T05:00:09.853Z,22
2022-08-17T05:04:32.956Z,21.9
2022-08-17T05:06:18.590Z,25.8
2022-08-17T05:08:20.437Z,29.8
2022-08-17T05:09:22.954Z,27
2022-08-17T05:11:24.789Z,27.9
2022-08-17T05:13:26.607Z,21.8
2022-08-17T05:15:28.429Z,25.4
2022-08-17T05:17:33.559Z,23
2022-08-17T05:19:35.350Z,28.5
2022-08-17T05:21:37.167Z,23.8
2022-08-17T05:23:42.676Z,27.5
2022-08-17T05:29:44.470Z,23.2
2022-08-17T05:31:49.561Z,23.2
2022-08-17T05:33:51.400Z,21.4
2022-08-17T05:35:53.231Z,22
2022-08-17T05:37:55.037Z,22.7
2022-08-17T05:39:56.915Z,30
2022-08-17T05:41:58.713Z,18.7
2022-08-17T05:44:00.539Z,24.1
2022-08-17T05:46:05.612Z,21.2
2022-08-17T05:48:07.447Z,25.2
2022-08-17T05:50:09.774Z,27.1
2022-08-17T05:52:11.134Z,29.3
2022-08-17T05:54:12.937Z,26.9
2022-08-17T05:56:29.553Z,29.9
2022-08-17T05:58:16.622Z,28.6
2022-08-17T06:02:23.512Z,34.3
2022-08-17T06:04:25.345Z,31.5
2022-08-17T06:05:27.893Z,33.5
2022-08-17T06:07:29.738Z,35.5
2022-08-17T06:11:33.366Z,27.6
2022-08-17T06:17:42.129Z,27.8
2022-08-17T06:23:47.624Z,34.4
2022-08-17T06:25:49.444Z,33.7
2022-08-17T06:27:54.564Z,33.4
2022-08-17T06:29:56.354Z,34.2
2022-08-17T06:31:58.194Z,26.7
2022-08-17T06:34:00.025Z,24.3
2022-08-17T06:36:01.837Z,27.9
2022-08-17T06:38:03.661Z,31.5
2022-08-17T06:40:05.638Z,27.6
2022-08-17T06:42:10.579Z,27.1
2022-08-17T06:44:12.400Z,25.6
2022-08-17T06:46:14.223Z,23.6
2022-08-17T06:48:16.031Z,32
2022-08-17T06:50:17.846Z,23.3
2022-08-17T06:52:42.129Z,26.3
2022-08-17T06:54:21.493Z,26.7
2022-08-17T07:00:30.278Z,22.3
2022-08-17T07:01:32.846Z,20.8
2022-08-17T07:03:34.596Z,20.6
2022-08-17T07:05:36.399Z,21.2
2022-08-17T07:07:38.225Z,20.4
2022-08-17T07:09:43.299Z,34.8
2022-08-17T07:11:45.117Z,18.2
2022-08-17T07:13:51.121Z,15.6
2022-08-17T07:15:48.734Z,17.2
2022-08-17T07:17:50.553Z,22.4
2022-08-17T07:19:52.354Z,16.9
2022-08-17T07:21:54.180Z,17.5
2022-08-17T07:23:59.252Z,17
2022-08-17T07:26:01.068Z,17.3
2022-08-17T07:28:05.970Z,47.4
2022-08-17T07:30:08.121Z,17.7
2022-08-17T07:32:06.489Z,16.4
2022-08-17T07:34:08.279Z,20.8
2022-08-17T07:36:10.091Z,17.8
2022-08-17T07:38:24.763Z,15.4
2022-08-17T07:40:17.111Z,15.1
2022-08-17T07:42:18.637Z,14.4
2022-08-17T07:44:20.416Z,15.3
2022-08-17T07:46:22.087Z,15.1
2022-08-17T07:48:23.754Z,15.3
2022-08-17T07:50:25.953Z,29.4
2022-08-17T07:52:51.998Z,17.6
2022-08-17T07:54:31.970Z,17.7
2022-08-17T07:56:34.620Z,13.3
2022-08-17T07:59:02.194Z,15
2022-08-17T08:01:03.952Z,14.1
2022-08-17T08:03:05.724Z,20.2
2022-08-17T08:05:10.560Z,12.6
2022-08-17T08:09:13.896Z,12.2
2022-08-17T08:11:15.768Z,14.5
2022-08-17T08:13:17.237Z,11.5
2022-08-17T08:15:19.122Z,12.6
2022-08-17T08:17:20.589Z,15.3
2022-08-17T08:19:25.422Z,13.2
2022-08-17T08:21:27.074Z,13.9
2022-08-17T08:25:30.421Z,13
2022-08-17T08:29:33.859Z,12.8
2022-08-17T08:31:38.883Z,14.3
2022-08-17T08:33:40.586Z,13.2
2022-08-17T08:37:43.963Z,21
2022-08-17T08:39:45.707Z,14
2022-08-17T08:41:47.405Z,17.4
2022-08-17T08:43:52.800Z,19.5
2022-08-17T08:45:50.748Z,15.9
2022-08-17T08:47:55.593Z,17.9
2022-08-17T08:50:04.668Z,15.6
2022-08-17T08:51:58.946Z,15.1
2022-08-17T08:53:01.411Z,19.3
2022-08-17T08:55:03.068Z,24.7
2022-08-17T08:57:24.254Z,19
2022-08-17T08:59:06.421Z,22.2
2022-08-17T09:01:16.919Z,15
2022-08-17T09:05:15.684Z,15.4
2022-08-17T09:07:16.292Z,17.1
2022-08-17T09:09:19.497Z,14.3
2022-08-17T09:11:21.133Z,15.7
2022-08-17T09:15:27.775Z,15
2022-08-17T09:23:34.241Z,13.5
2022-08-17T09:25:35.896Z,13.1
2022-08-17T09:27:37.549Z,17
2022-08-17T09:29:42.372Z,14.8
2022-08-17T09:31:49.027Z,15.1
2022-08-17T09:33:45.679Z,11.7
2022-08-17T09:35:47.309Z,14.1
2022-08-17T09:37:49.073Z,11.5
2022-08-17T09:39:50.692Z,11.8
2022-08-17T09:41:52.225Z,15.3
2022-08-17T09:43:57.062Z,13.3
2022-08-17T09:45:58.691Z,13.5
2022-08-17T09:48:00.306Z,10.5
2022-08-17T09:49:02.724Z,13
2022-08-17T09:55:07.576Z,12.6
2022-08-17T09:57:29.328Z,12
2022-08-17T09:59:13.997Z,12.9
2022-08-17T10:03:17.172Z,13.6
2022-08-17T10:05:18.795Z,13.9
2022-08-17T10:07:20.369Z,10.4
2022-08-17T10:13:28.370Z,14.1
2022-08-17T10:15:29.977Z,12.6
2022-08-17T10:17:31.585Z,11.9
2022-08-17T10:23:36.375Z,14.7
2022-08-17T10:25:54.572Z,14.6
2022-08-17T10:27:42.892Z,16.4
2022-08-17T10:29:47.439Z,16.9
2022-08-17T10:31:46.040Z,13.6
2022-08-17T10:33:47.644Z,20.1
2022-08-17T10:35:49.270Z,18.7
2022-08-17T10:37:51.045Z,20.2
2022-08-17T10:39:55.781Z,17.6
2022-08-17T10:41:57.343Z,17.9
2022-08-17T10:44:38.380Z,18.4
2022-08-17T10:45:01.367Z,18.1
2022-08-17T10:47:03.002Z,17.9
2022-08-17T10:49:04.627Z,20.9
2022-08-17T10:51:06.261Z,15.9
2022-08-17T10:53:11.075Z,16.9
2022-08-17T10:55:12.694Z,14.6
2022-08-17T10:57:14.332Z,17
2022-08-17T10:59:15.984Z,14.8
2022-08-17T11:01:17.709Z,18.5
2022-08-17T11:03:19.211Z,17.8
2022-08-17T11:05:20.818Z,18.1
2022-08-17T11:07:25.640Z,19.2
2022-08-17T11:09:27.283Z,17.3
2022-08-17T11:11:28.928Z,18.8
2022-08-17T11:13:30.540Z,19.2
2022-08-17T11:15:32.168Z,22.6
2022-08-17T11:17:33.777Z,20.7
2022-08-17T11:19:35.430Z,23.2
2022-08-17T11:21:40.247Z,18.6
2022-08-17T11:23:41.866Z,17.4
2022-08-17T11:27:45.164Z,18.9
2022-08-17T11:29:49.445Z,20.4
2022-08-17T11:31:48.416Z,21.5
2022-08-17T11:33:50.036Z,33.4
2022-08-17T11:35:54.868Z,21.4
2022-08-17T11:37:56.496Z,20.4
2022-08-17T11:39:58.219Z,26.5
2022-08-17T11:44:28.180Z,20.7
2022-08-17T11:46:29.827Z,20.1
2022-08-17T11:52:37.921Z,19.7
2022-08-17T11:54:39.565Z,24.7
2022-08-17T11:56:41.199Z,26.7
2022-08-17T11:58:42.853Z,25.9
2022-08-17T12:00:44.505Z,17.4
2022-08-17T12:02:49.316Z,26
2022-08-17T12:04:50.975Z,21.8
2022-08-17T12:06:52.595Z,23.1
2022-08-17T12:08:55.305Z,23.3
2022-08-17T12:10:55.887Z,22.6
2022-08-17T12:12:57.551Z,57.3
2022-08-17T12:15:10.245Z,27.8
2022-08-17T12:17:04.157Z,23.9
2022-08-17T12:25:10.805Z,27
2022-08-17T12:27:13.154Z,21
2022-08-17T12:29:18.075Z,30.7
2022-08-17T12:31:18.986Z,30.9
2022-08-17T12:33:25.571Z,26.9
2022-08-17T12:35:22.301Z,24.8
2022-08-17T12:38:26.823Z,31.3
2022-08-17T12:40:28.070Z,24.9
2022-08-17T12:42:29.740Z,24.6
2022-08-17T12:44:34.592Z,27.4
2022-08-17T12:46:36.400Z,22.4
2022-08-17T12:54:43.058Z,23.1
2022-08-17T12:56:44.746Z,21.6
2022-08-17T12:58:49.572Z,23.4
2022-08-17T13:00:51.359Z,33.7
2022-08-17T13:02:53.028Z,26.1
2022-08-17T13:04:54.700Z,22.7
2022-08-17T13:06:59.785Z,24.2
2022-08-17T13:08:58.474Z,25.4
2022-08-17T13:11:00.162Z,20.6
2022-08-17T13:13:05.035Z,23.9
2022-08-17T13:15:06.697Z,28.9
2022-08-17T13:17:13.148Z,30.6
2022-08-17T13:19:10.057Z,24.3
2022-08-17T13:21:11.744Z,22.6
2022-08-17T13:23:13.411Z,23.2
2022-08-17T13:25:15.114Z,27.4
2022-08-17T13:27:20.186Z,25.6
2022-08-17T13:29:16.165Z,26.1
2022-08-17T13:31:17.942Z,26.3
2022-08-17T13:32:20.385Z,24.9
2022-08-17T13:34:22.084Z,28.5
2022-08-17T13:36:24.070Z,22
2022-08-17T13:38:25.663Z,26.6
2022-08-17T13:48:37.735Z,23.4
2022-08-17T13:50:39.530Z,27.2
2022-08-17T13:52:41.340Z,22.9
2022-08-17T13:54:46.414Z,25.3
2022-08-17T13:56:48.191Z,33.2
2022-08-17T13:58:49.894Z,25.1
2022-08-17T14:00:51.609Z,30.5
2022-08-17T14:02:53.412Z,27.7
2022-08-17T14:04:55.220Z,21.5
2022-08-17T14:06:57.039Z,23.9
2022-08-17T14:09:02.134Z,23.8
2022-08-17T14:11:03.942Z,23.9
2022-08-17T14:13:05.763Z,27.8
2022-08-17T14:15:07.552Z,23.6
2022-08-17T14:17:09.350Z,24.7
2022-08-17T14:19:11.170Z,28.6
2022-08-17T14:21:12.972Z,28.8
2022-08-17T14:23:18.038Z,30.1
2022-08-17T14:25:19.852Z,33.5
2022-08-17T14:27:21.662Z,29.6
2022-08-17T14:28:24.190Z,31.1
2022-08-17T14:30:26.018Z,29.9
2022-08-17T14:32:27.822Z,36.8
2022-08-17T14:34:29.624Z,27.9
2022-08-17T14:36:34.688Z,32.4
2022-08-17T14:38:36.508Z,30
2022-08-17T14:40:38.295Z,31.4
2022-08-17T14:42:40.162Z,42.6
2022-08-17T14:44:41.935Z,34.1
2022-08-17T14:48:45.522Z,33.2
2022-08-17T14:52:52.420Z,30.8
2022-08-17T14:58:57.840Z,26.9
2022-08-17T15:01:01.230Z,29.3
2022-08-17T15:03:02.963Z,26.4
2022-08-17T15:05:08.023Z,25
2022-08-17T15:07:09.826Z,31
2022-08-17T15:09:11.628Z,23.6
2022-08-17T15:11:14.445Z,25.7
2022-08-17T15:15:17.015Z,24.7
2022-08-17T15:17:18.835Z,27.7
2022-08-17T15:23:27.488Z,29.5
2022-08-17T15:27:57.838Z,20.3
2022-08-17T15:29:59.648Z,20.9
2022-08-17T15:32:04.670Z,20.6
2022-08-17T15:36:08.197Z,24.5
2022-08-17T15:50:23.470Z,16.9
2022-08-17T15:52:25.155Z,24.5
2022-08-17T15:54:26.833Z,18.8
2022-08-17T15:56:28.526Z,23.2
2022-08-17T15:58:32.276Z,20.2
2022-08-17T16:03:45.011Z,24.3
2022-08-17T16:04:43.972Z,21.4
2022-08-17T16:06:40.356Z,21.6
2022-08-17T16:08:42.023Z,26.7
2022-08-17T16:12:45.399Z,27.4
2022-08-17T16:14:50.258Z,33.1
2022-08-17T16:16:52.047Z,31.7
2022-08-17T16:19:56.268Z,34
2022-08-17T16:21:57.934Z,29.9
2022-08-17T16:23:59.609Z,26.2
2022-08-17T16:26:01.322Z,25.8
2022-08-17T16:28:06.274Z,27.1
2022-08-17T16:30:07.996Z,29.5
2022-08-17T16:32:09.661Z,30
2022-08-17T16:34:17.387Z,32.1
2022-08-17T16:36:13.020Z,26.8
2022-08-17T16:38:14.821Z,34.2
2022-08-17T16:40:16.727Z,32.8
2022-08-17T16:42:21.678Z,28.7
2022-08-17T16:44:23.496Z,34.7
2022-08-17T16:46:25.276Z,31.2
2022-08-17T16:48:27.065Z,31.6
2022-08-17T16:50:28.875Z,31.8
2022-08-17T16:52:32.866Z,30.1
2022-08-17T16:54:32.462Z,31.7
2022-08-17T16:56:37.546Z,31.9
2022-08-17T16:58:39.342Z,29.5
2022-08-17T17:00:41.212Z,31.2
2022-08-17T17:02:42.932Z,30.3
2022-08-17T17:04:44.613Z,32.2
2022-08-17T17:06:46.427Z,33.2
2022-08-17T17:08:48.224Z,28.5
2022-08-17T17:10:53.294Z,33.3
2022-08-17T17:13:02.302Z,31.2
2022-08-17T17:15:59.421Z,32.2
2022-08-17T17:24:09.770Z,27.7
2022-08-17T17:26:11.596Z,27
2022-08-17T17:28:13.395Z,24.3
2022-08-17T17:30:15.156Z,23.1
2022-08-17T17:32:17.328Z,30.6
2022-08-17T17:34:18.672Z,24.1
2022-08-17T17:36:20.462Z,19.7
2022-08-17T17:40:27.353Z,23.7
2022-08-17T17:42:29.120Z,17.9
2022-08-17T17:44:30.924Z,18.4
2022-08-17T17:46:32.739Z,23.3
2022-08-17T17:48:34.525Z,22.3
2022-08-17T17:50:36.318Z,17.8
2022-08-17T17:52:41.392Z,21.9
2022-08-17T17:54:43.188Z,22.4
2022-08-17T17:56:45.226Z,17.7
2022-08-17T17:58:46.852Z,18.9
2022-08-17T18:00:48.640Z,27.2
2022-08-17T18:02:51.381Z,20.9
2022-08-17T18:04:52.277Z,22.4
2022-08-17T18:06:57.488Z,23.7
2022-08-17T18:08:59.145Z,25.8
2022-08-17T18:11:00.942Z,21.6
2022-08-17T18:16:07.101Z,22.8
2022-08-17T18:18:08.916Z,29.2
2022-08-17T18:24:17.613Z,23.2
2022-08-17T18:26:19.429Z,23.3
2022-08-17T18:28:21.238Z,25.6
2022-08-17T18:38:33.560Z,23.5
2022-08-17T18:42:37.252Z,24
2022-08-17T18:44:39.085Z,22.9
2022-08-17T18:46:40.830Z,25.5
2022-08-17T18:48:45.906Z,26.7
2022-08-17T18:50:47.950Z,27.4
2022-08-17T18:52:49.605Z,23.5
2022-08-17T18:54:51.358Z,24.2
2022-08-17T18:56:53.242Z,28.8
2022-08-17T18:58:54.998Z,24.9
2022-08-17T19:00:56.866Z,26
2022-08-17T19:03:01.993Z,26.2
2022-08-17T19:05:03.789Z,24.7
2022-08-17T19:07:05.557Z,25
2022-08-17T19:09:34.292Z,25.8
2022-08-17T19:11:36.104Z,28.5
2022-08-17T19:13:37.950Z,26.1
2022-08-17T19:15:42.964Z,34.2
2022-08-17T19:17:44.891Z,29.9
2022-08-17T19:19:46.588Z,24.7
2022-08-17T19:21:48.414Z,24.4
2022-08-17T19:23:53.503Z,22.5
2022-08-17T19:25:52.701Z,35.4
2022-08-17T19:27:57.456Z,24.1
2022-08-17T19:30:01.646Z,22.6
2022-08-17T19:32:00.767Z,23.4
2022-08-17T19:34:02.645Z,19.9
2022-08-17T19:36:04.474Z,24.9
2022-08-17T19:38:06.274Z,23.6
2022-08-17T19:40:08.197Z,22.2
2022-08-17T19:42:09.910Z,25.8
2022-08-17T19:50:20.374Z,33.1
2022-08-17T19:56:25.799Z,27
2022-08-17T20:00:32.702Z,27.3
2022-08-17T20:02:34.533Z,31
2022-08-17T20:03:37.077Z,30.4
2022-08-17T20:06:08.462Z,30.3
2022-08-17T20:07:40.723Z,28.5
2022-08-17T20:09:42.531Z,31.6
2022-08-17T20:11:47.589Z,31.7
2022-08-17T20:13:49.407Z,27
2022-08-17T20:17:53.230Z,29.3
2022-08-17T20:19:54.822Z,31.2
2022-08-17T20:21:56.655Z,26.5
2022-08-17T20:23:58.469Z,27.4
2022-08-17T20:26:03.538Z,28.6
2022-08-17T20:28:05.786Z,30.8
2022-08-17T20:30:07.165Z,27.6
2022-08-17T20:32:08.979Z,26.3
2022-08-17T20:36:12.591Z,22.4
2022-08-17T20:38:14.417Z,33.3
2022-08-17T20:40:19.563Z,31.4
2022-08-17T20:42:21.305Z,26.6
2022-08-17T20:44:23.125Z,28.8
2022-08-17T20:46:24.930Z,26
2022-08-17T20:48:37.899Z,25
2022-08-17T20:50:28.571Z,26.8
2022-08-17T20:52:31.933Z,27.1
2022-08-17T20:54:36.997Z,25.9
2022-08-17T20:56:38.802Z,26.9
2022-08-17T20:58:40.633Z,24.7
2022-08-17T20:59:43.158Z,29.5
2022-08-17T21:12:03.205Z,25.9
2022-08-17T21:13:59.118Z,30.6
2022-08-17T21:16:00.959Z,25.5
2022-08-17T21:22:09.678Z,24.4
2022-08-17T21:24:11.879Z,21.4
2022-08-17T21:30:16.920Z,24
2022-08-17T21:32:24.185Z,23
2022-08-17T21:34:20.536Z,25.5
2022-08-17T21:36:25.645Z,23.8
2022-08-17T21:38:27.433Z,22.3
2022-08-17T21:40:29.249Z,20.5
2022-08-17T21:44:32.921Z,19.4
2022-08-17T21:46:34.724Z,23.7
2022-08-17T21:48:36.544Z,18
2022-08-17T21:50:41.638Z,20.5
2022-08-17T21:52:43.446Z,24.5
2022-08-17T21:54:45.259Z,23.9
2022-08-17T21:55:47.791Z,22.4
2022-08-17T21:57:52.779Z,20.3
2022-08-17T21:59:51.451Z,19.2
2022-08-17T22:03:58.329Z,20.7
2022-08-17T22:06:00.148Z,20.6
2022-08-17T22:08:02.301Z,22.3
2022-08-17T22:10:03.803Z,18
2022-08-17T22:12:05.640Z,17.4
2022-08-17T22:14:07.456Z,21.7
2022-08-17T22:16:28.112Z,23.7
2022-08-17T22:20:16.149Z,25.8
2022-08-17T22:22:17.972Z,17.5
2022-08-17T22:26:21.620Z,20.4
2022-08-17T22:28:23.443Z,19.5
2022-08-17T22:30:25.278Z,25.9
2022-08-17T22:32:30.354Z,17.4
2022-08-17T22:34:32.167Z,20.9
2022-08-17T22:36:34.033Z,18
2022-08-17T22:40:37.631Z,19.7
2022-08-17T22:42:39.465Z,19.3
2022-08-17T22:44:41.280Z,35.8
2022-08-17T22:46:46.354Z,29.7
2022-08-17T22:48:48.184Z,32.2
2022-08-17T22:50:50.045Z,16.7
2022-08-17T22:53:18.692Z,20.9
2022-08-17T22:55:20.510Z,19.4
2022-08-17T22:57:22.330Z,18.7
2022-08-17T22:59:27.432Z,26.5
2022-08-17T23:01:29.243Z,25
2022-08-17T23:03:31.107Z,13.7
2022-08-17T23:05:32.882Z,20.3
2022-08-17T23:07:34.702Z,23.7
2022-08-17T23:11:49.062Z,17.8
2022-08-17T23:13:43.424Z,19.3
2022-08-17T23:15:45.227Z,17.3
2022-08-17T23:17:47.076Z,19.4
2022-08-17T23:19:48.905Z,20.6
2022-08-17T23:21:50.736Z,17.6
2022-08-17T23:23:52.543Z,22.1
2022-08-17T23:25:54.380Z,17.1
2022-08-17T23:27:59.449Z,12.8
2022-08-17T23:30:01.265Z,23.4
2022-08-17T23:32:03.113Z,17.5
2022-08-17T23:34:04.936Z,13.9
2022-08-17T23:38:08.548Z,14.7
2022-08-17T23:44:17.276Z,18.4
2022-08-17T23:46:19.101Z,11.3
2022-08-17T23:47:21.650Z,15.3
2022-08-17T23:53:27.120Z,11.6
2022-08-17T23:55:32.205Z,12.8
2022-08-17T23:57:36.099Z,10.8
2022-08-17T23:59:35.844Z,12.9
